sensor_id;sensor_type;location;lat;lon;timestamp;pressure;altitude;pressure_sealevel;temperature;humidity
71805;BME280;59654;52.216;5.616;2023-04-06T00:00:17;101657.50;;;0.15;79.00
71805;BME280;59654;52.216;5.616;2023-04-06T00:00:48;101661.00;;;0.16;79.66
71805;BME280;59654;52.216;5.616;2023-04-06T00:01:19;101662.72;;;0.15;79.26
71805;BME280;59654;52.216;5.616;2023-04-06T00:01:50;101660.97;;;0.14;78.90
71805;BME280;59654;52.216;5.616;2023-04-06T00:02:21;101654.84;;;0.14;78.63
71805;BME280;59654;52.216;5.616;2023-04-06T00:02:51;101655.69;;;0.13;78.66
71805;BME280;59654;52.216;5.616;2023-04-06T00:03:22;101653.91;;;0.12;78.23
71805;BME280;59654;52.216;5.616;2023-04-06T00:03:53;101660.03;;;0.11;78.25
71805;BME280;59654;52.216;5.616;2023-04-06T00:04:24;101654.78;;;0.11;78.39
71805;BME280;59654;52.216;5.616;2023-04-06T00:04:54;101654.75;;;0.09;78.34
71805;BME280;59654;52.216;5.616;2023-04-06T00:05:25;101653.88;;;0.09;78.25
71805;BME280;59654;52.216;5.616;2023-04-06T00:05:58;101660.03;;;0.11;78.16
71805;BME280;59654;52.216;5.616;2023-04-06T00:06:29;101660.00;;;0.09;78.30
71805;BME280;59654;52.216;5.616;2023-04-06T00:06:59;101661.72;;;0.09;78.12
71805;BME280;59654;52.216;5.616;2023-04-06T00:07:30;101653.91;;;0.10;78.21
71805;BME280;59654;52.216;5.616;2023-04-06T00:08:03;101656.50;;;0.10;78.12
71805;BME280;59654;52.216;5.616;2023-04-06T00:08:34;101653.00;;;0.08;77.96
71805;BME280;59654;52.216;5.616;2023-04-06T00:09:05;101653.00;;;0.08;77.46
71805;BME280;59654;52.216;5.616;2023-04-06T00:09:36;101652.09;;;0.06;77.85
71805;BME280;59654;52.216;5.616;2023-04-06T00:10:07;101652.94;;;0.05;77.67
71805;BME280;59654;52.216;5.616;2023-04-06T00:10:39;101656.47;;;0.06;77.07
71805;BME280;59654;52.216;5.616;2023-04-06T00:11:10;101655.53;;;0.04;77.47
71805;BME280;59654;52.216;5.616;2023-04-06T00:11:40;101654.66;;;0.03;77.37
71805;BME280;59654;52.216;5.616;2023-04-06T00:12:11;101649.41;;;0.03;77.62
71805;BME280;59654;52.216;5.616;2023-04-06T00:12:42;101658.13;;;0.02;77.50
71805;BME280;59654;52.216;5.616;2023-04-06T00:13:13;101652.00;;;0.02;77.55
71805;BME280;59654;52.216;5.616;2023-04-06T00:13:45;101658.09;;;0.01;78.41
71805;BME280;59654;52.216;5.616;2023-04-06T00:14:15;101652.84;;;0.01;78.63
71805;BME280;59654;52.216;5.616;2023-04-06T00:14:47;101649.34;;;0.00;78.05
71805;BME280;59654;52.216;5.616;2023-04-06T00:15:18;101653.72;;;-0.00;78.92
71805;BME280;59654;52.216;5.616;2023-04-06T00:15:49;101656.38;;;0.01;79.26
71805;BME280;59654;52.216;5.616;2023-04-06T00:16:20;101655.50;;;0.02;79.34
71805;BME280;59654;52.216;5.616;2023-04-06T00:16:51;101652.91;;;0.02;79.91
71805;BME280;59654;52.216;5.616;2023-04-06T00:17:23;101651.16;;;0.03;80.25
71805;BME280;59654;52.216;5.616;2023-04-06T00:17:53;101650.31;;;0.04;80.39
71805;BME280;59654;52.216;5.616;2023-04-06T00:18:25;101652.06;;;0.05;80.66
71805;BME280;59654;52.216;5.616;2023-04-06T00:18:56;101651.19;;;0.04;80.70
71805;BME280;59654;52.216;5.616;2023-04-06T00:19:27;101651.22;;;0.06;80.28
71805;BME280;59654;52.216;5.616;2023-04-06T00:19:58;101649.47;;;0.06;80.53
71805;BME280;59654;52.216;5.616;2023-04-06T00:20:29;101648.59;;;0.06;80.79
71805;BME280;59654;52.216;5.616;2023-04-06T00:21:00;101645.94;;;0.04;80.56
71805;BME280;59654;52.216;5.616;2023-04-06T00:21:30;101645.06;;;0.04;80.50
71805;BME280;59654;52.216;5.616;2023-04-06T00:22:02;101637.16;;;0.02;80.70
71805;BME280;59654;52.216;5.616;2023-04-06T00:22:33;101646.75;;;0.02;80.55
71805;BME280;59654;52.216;5.616;2023-04-06T00:23:05;101646.72;;;0.00;80.51
71805;BME280;59654;52.216;5.616;2023-04-06T00:23:35;101644.94;;;-0.02;80.28
71805;BME280;59654;52.216;5.616;2023-04-06T00:24:06;101644.94;;;-0.02;80.55
71805;BME280;59654;52.216;5.616;2023-04-06T00:24:37;101646.66;;;-0.03;80.87
71805;BME280;59654;52.216;5.616;2023-04-06T00:25:08;101645.81;;;-0.02;80.69
71805;BME280;59654;52.216;5.616;2023-04-06T00:25:40;101641.41;;;-0.04;80.62
71805;BME280;59654;52.216;5.616;2023-04-06T00:26:11;101645.78;;;-0.03;80.71
71805;BME280;59654;52.216;5.616;2023-04-06T00:26:43;101642.28;;;-0.04;81.00
71805;BME280;59654;52.216;5.616;2023-04-06T00:27:13;101640.53;;;-0.03;81.17
71805;BME280;59654;52.216;5.616;2023-04-06T00:27:45;101646.66;;;-0.03;80.79
71805;BME280;59654;52.216;5.616;2023-04-06T00:28:15;101641.41;;;-0.04;80.99
71805;BME280;59654;52.216;5.616;2023-04-06T00:28:46;101638.75;;;-0.06;80.78
71805;BME280;59654;52.216;5.616;2023-04-06T00:29:17;101636.13;;;-0.06;80.92
71805;BME280;59654;52.216;5.616;2023-04-06T00:29:48;101630.84;;;-0.07;80.93
71805;BME280;59654;52.216;5.616;2023-04-06T00:30:19;101634.41;;;-0.05;80.77
71805;BME280;59654;52.216;5.616;2023-04-06T00:30:50;101640.50;;;-0.05;81.06
71805;BME280;59654;52.216;5.616;2023-04-06T00:31:22;101643.13;;;-0.05;80.36
71805;BME280;59654;52.216;5.616;2023-04-06T00:31:53;101639.66;;;-0.04;80.31
71805;BME280;59654;52.216;5.616;2023-04-06T00:32:24;101639.66;;;-0.04;80.06
71805;BME280;59654;52.216;5.616;2023-04-06T00:32:55;101638.81;;;-0.03;79.21
71805;BME280;59654;52.216;5.616;2023-04-06T00:33:26;101629.19;;;-0.04;79.43
71805;BME280;59654;52.216;5.616;2023-04-06T00:33:57;101639.69;;;-0.02;79.07
71805;BME280;59654;52.216;5.616;2023-04-06T00:34:28;101635.34;;;-0.02;79.05
71805;BME280;59654;52.216;5.616;2023-04-06T00:34:59;101636.22;;;-0.01;77.88
71805;BME280;59654;52.216;5.616;2023-04-06T00:35:30;101636.22;;;-0.01;77.78
71805;BME280;59654;52.216;5.616;2023-04-06T00:36:01;101630.94;;;-0.03;78.03
71805;BME280;59654;52.216;5.616;2023-04-06T00:36:31;101630.91;;;-0.04;77.31
71805;BME280;59654;52.216;5.616;2023-04-06T00:37:02;101625.69;;;-0.03;77.20
71805;BME280;59654;52.216;5.616;2023-04-06T00:37:33;101630.13;;;-0.00;77.08
71805;BME280;59654;52.216;5.616;2023-04-06T00:38:04;101628.38;;;0.00;77.07
71805;BME280;59654;52.216;5.616;2023-04-06T00:38:35;101627.47;;;-0.02;76.11
71805;BME280;59654;52.216;5.616;2023-04-06T00:39:06;101626.63;;;-0.01;76.26
71805;BME280;59654;52.216;5.616;2023-04-06T00:39:37;101625.69;;;-0.03;76.18
71805;BME280;59654;52.216;5.616;2023-04-06T00:40:08;101629.22;;;-0.02;75.63
71805;BME280;59654;52.216;5.616;2023-04-06T00:40:40;101623.06;;;-0.04;75.70
71805;BME280;59654;52.216;5.616;2023-04-06T00:41:11;101618.69;;;-0.04;75.97
71805;BME280;59654;52.216;5.616;2023-04-06T00:41:46;101626.56;;;-0.04;75.62
71805;BME280;59654;52.216;5.616;2023-04-06T00:42:21;101615.19;;;-0.04;75.89
71805;BME280;59654;52.216;5.616;2023-04-06T00:42:56;101626.59;;;-0.02;75.35
71805;BME280;59654;52.216;5.616;2023-04-06T00:43:27;101626.56;;;-0.04;75.43
71805;BME280;59654;52.216;5.616;2023-04-06T00:43:57;101627.44;;;-0.03;74.97
71805;BME280;59654;52.216;5.616;2023-04-06T00:44:28;101621.31;;;-0.04;75.16
71805;BME280;59654;52.216;5.616;2023-04-06T00:45:00;101617.84;;;-0.03;74.08
71805;BME280;59654;52.216;5.616;2023-04-06T00:45:32;101625.69;;;-0.04;74.44
71805;BME280;59654;52.216;5.616;2023-04-06T00:46:03;101613.44;;;-0.05;74.58
71805;BME280;59654;52.216;5.616;2023-04-06T00:46:34;101617.78;;;-0.06;74.73
71805;BME280;59654;52.216;5.616;2023-04-06T00:47:05;101617.75;;;-0.07;74.59
71805;BME280;59654;52.216;5.616;2023-04-06T00:47:36;101615.13;;;-0.07;74.85
71805;BME280;59654;52.216;5.616;2023-04-06T00:48:08;101613.41;;;-0.08;74.61
71805;BME280;59654;52.216;5.616;2023-04-06T00:48:39;101616.88;;;-0.09;74.67
71805;BME280;59654;52.216;5.616;2023-04-06T00:49:11;101623.84;;;-0.10;75.08
71805;BME280;59654;52.216;5.616;2023-04-06T00:49:41;101614.19;;;-0.12;74.64
71805;BME280;59654;52.216;5.616;2023-04-06T00:50:12;101617.66;;;-0.13;74.67
71805;BME280;59654;52.216;5.616;2023-04-06T00:50:43;101612.44;;;-0.13;74.94
71805;BME280;59654;52.216;5.616;2023-04-06T00:51:14;101613.28;;;-0.14;74.69
71805;BME280;59654;52.216;5.616;2023-04-06T00:51:45;101609.75;;;-0.16;74.75
71805;BME280;59654;52.216;5.616;2023-04-06T00:52:16;101613.22;;;-0.17;74.79
71805;BME280;59654;52.216;5.616;2023-04-06T00:52:49;101605.28;;;-0.21;74.87
71805;BME280;59654;52.216;5.616;2023-04-06T00:53:23;101607.03;;;-0.21;75.15
71805;BME280;59654;52.216;5.616;2023-04-06T00:53:55;101610.50;;;-0.22;75.64
71805;BME280;59654;52.216;5.616;2023-04-06T00:54:28;101614.84;;;-0.23;75.99
71805;BME280;59654;52.216;5.616;2023-04-06T00:55:00;101607.84;;;-0.24;76.57
71805;BME280;59654;52.216;5.616;2023-04-06T00:55:31;101613.09;;;-0.24;76.71
71805;BME280;59654;52.216;5.616;2023-04-06T00:56:03;101611.34;;;-0.25;77.25
71805;BME280;59654;52.216;5.616;2023-04-06T00:56:42;101611.28;;;-0.28;77.46
71805;BME280;59654;52.216;5.616;2023-04-06T00:57:14;101609.56;;;-0.27;77.61
71805;BME280;59654;52.216;5.616;2023-04-06T00:57:47;101614.81;;;-0.27;77.98
71805;BME280;59654;52.216;5.616;2023-04-06T00:58:19;101606.91;;;-0.29;78.22
71805;BME280;59654;52.216;5.616;2023-04-06T00:58:55;101604.28;;;-0.29;78.50
71805;BME280;59654;52.216;5.616;2023-04-06T00:59:27;101612.16;;;-0.29;78.96
71805;BME280;59654;52.216;5.616;2023-04-06T00:59:59;101611.25;;;-0.29;78.92
71805;BME280;59654;52.216;5.616;2023-04-06T01:00:30;101608.66;;;-0.29;79.08
71805;BME280;59654;52.216;5.616;2023-04-06T01:01:04;101609.53;;;-0.29;79.72
71805;BME280;59654;52.216;5.616;2023-04-06T01:01:37;101606.91;;;-0.29;80.06
71805;BME280;59654;52.216;5.616;2023-04-06T01:02:17;101609.50;;;-0.30;79.87
71805;BME280;59654;52.216;5.616;2023-04-06T01:02:53;101605.06;;;-0.33;79.95
71805;BME280;59654;52.216;5.616;2023-04-06T01:03:26;101605.94;;;-0.34;79.96
71805;BME280;59654;52.216;5.616;2023-04-06T01:03:57;101600.69;;;-0.34;79.86
71805;BME280;59654;52.216;5.616;2023-04-06T01:04:28;101604.16;;;-0.35;79.70
71805;BME280;59654;52.216;5.616;2023-04-06T01:05:00;101604.13;;;-0.36;79.74
71805;BME280;59654;52.216;5.616;2023-04-06T01:05:47;101602.41;;;-0.36;79.51
71805;BME280;59654;52.216;5.616;2023-04-06T01:06:24;101600.63;;;-0.37;79.56
71805;BME280;59654;52.216;5.616;2023-04-06T01:07:12;101603.28;;;-0.35;79.43
71805;BME280;59654;52.216;5.616;2023-04-06T01:07:51;101600.56;;;-0.40;79.76
71805;BME280;59654;52.216;5.616;2023-04-06T01:08:26;101594.47;;;-0.40;79.85
71805;BME280;59654;52.216;5.616;2023-04-06T01:09:05;101598.81;;;-0.42;79.82
71805;BME280;59654;52.216;5.616;2023-04-06T01:09:36;101601.41;;;-0.42;79.92
71805;BME280;59654;52.216;5.616;2023-04-06T01:10:22;101590.00;;;-0.46;80.11
71805;BME280;59654;52.216;5.616;2023-04-06T01:10:55;101590.84;;;-0.47;80.21
71805;BME280;59654;52.216;5.616;2023-04-06T01:11:32;101585.56;;;-0.48;80.34
71805;BME280;59654;52.216;5.616;2023-04-06T01:12:05;101587.31;;;-0.49;80.49
71805;BME280;59654;52.216;5.616;2023-04-06T01:12:38;101594.31;;;-0.48;80.38
71805;BME280;59654;52.216;5.616;2023-04-06T01:13:14;101594.31;;;-0.48;79.98
71805;BME280;59654;52.216;5.616;2023-04-06T01:13:51;101587.28;;;-0.50;79.99
71805;BME280;59654;52.216;5.616;2023-04-06T01:14:41;101589.94;;;-0.49;79.86
71805;BME280;59654;52.216;5.616;2023-04-06T01:15:12;101588.16;;;-0.50;80.22
71805;BME280;59654;52.216;5.616;2023-04-06T01:15:46;101591.63;;;-0.51;79.98
71805;BME280;59654;52.216;5.616;2023-04-06T01:16:22;101584.59;;;-0.54;79.83
71805;BME280;59654;52.216;5.616;2023-04-06T01:17:13;101588.97;;;-0.53;80.01
71805;BME280;59654;52.216;5.616;2023-04-06T01:17:44;101588.09;;;-0.53;79.91
71805;BME280;59654;52.216;5.616;2023-04-06T01:18:18;101588.09;;;-0.53;80.00
71805;BME280;59654;52.216;5.616;2023-04-06T01:19:09;101586.34;;;-0.54;80.11
71805;BME280;59654;52.216;5.616;2023-04-06T01:19:41;101587.22;;;-0.54;79.55
71805;BME280;59654;52.216;5.616;2023-04-06T01:20:13;101571.47;;;-0.57;79.76
71805;BME280;59654;52.216;5.616;2023-04-06T01:20:44;101583.69;;;-0.57;79.99
71805;BME280;59654;52.216;5.616;2023-04-06T01:21:16;101584.53;;;-0.58;79.90
71805;BME280;59654;52.216;5.616;2023-04-06T01:22:00;101579.28;;;-0.58;80.10
71805;BME280;59654;52.216;5.616;2023-04-06T01:22:34;101574.06;;;-0.58;79.72
71805;BME280;59654;52.216;5.616;2023-04-06T01:23:07;101580.16;;;-0.59;79.65
71805;BME280;59654;52.216;5.616;2023-04-06T01:23:39;101581.00;;;-0.60;79.76
71805;BME280;59654;52.216;5.616;2023-04-06T01:24:10;101578.41;;;-0.59;79.80
71805;BME280;59654;52.216;5.616;2023-04-06T01:24:58;101583.66;;;-0.59;79.76
71805;BME280;59654;52.216;5.616;2023-04-06T01:25:51;101578.44;;;-0.57;79.70
71805;BME280;59654;52.216;5.616;2023-04-06T01:26:22;101582.81;;;-0.58;79.58
71805;BME280;59654;52.216;5.616;2023-04-06T01:26:56;101580.19;;;-0.56;79.07
71805;BME280;59654;52.216;5.616;2023-04-06T01:27:30;101578.44;;;-0.57;79.57
71805;BME280;59654;52.216;5.616;2023-04-06T01:28:18;101577.56;;;-0.58;79.50
71805;BME280;59654;52.216;5.616;2023-04-06T01:29:19;101575.81;;;-0.57;79.59
71805;BME280;59654;52.216;5.616;2023-04-06T01:29:50;101585.41;;;-0.56;79.23
71805;BME280;59654;52.216;5.616;2023-04-06T01:30:32;101578.44;;;-0.56;79.28
71805;BME280;59654;52.216;5.616;2023-04-06T01:31:09;101575.81;;;-0.57;79.19
71805;BME280;59654;52.216;5.616;2023-04-06T01:31:46;101574.09;;;-0.57;79.17
71805;BME280;59654;52.216;5.616;2023-04-06T01:32:17;101572.31;;;-0.58;79.16
71805;BME280;59654;52.216;5.616;2023-04-06T01:32:53;101576.72;;;-0.57;78.89
71805;BME280;59654;52.216;5.616;2023-04-06T01:33:47;101571.47;;;-0.57;78.73
71805;BME280;59654;52.216;5.616;2023-04-06T01:34:21;101565.34;;;-0.57;78.58
71805;BME280;59654;52.216;5.616;2023-04-06T01:34:52;101576.72;;;-0.55;78.63
71805;BME280;59654;52.216;5.616;2023-04-06T01:35:23;101574.97;;;-0.55;78.85
71805;BME280;59654;52.216;5.616;2023-04-06T01:36:18;101575.91;;;-0.51;78.45
71805;BME280;59654;52.216;5.616;2023-04-06T01:36:55;101568.94;;;-0.50;78.69
71805;BME280;59654;52.216;5.616;2023-04-06T01:37:30;101568.97;;;-0.49;78.11
71805;BME280;59654;52.216;5.616;2023-04-06T01:38:04;101567.25;;;-0.48;78.50
71805;BME280;59654;52.216;5.616;2023-04-06T01:38:37;101570.78;;;-0.46;78.74
71805;BME280;59654;52.216;5.616;2023-04-06T01:39:08;101569.91;;;-0.47;78.56
71805;BME280;59654;52.216;5.616;2023-04-06T01:39:43;101562.91;;;-0.46;78.53
71805;BME280;59654;52.216;5.616;2023-04-06T01:40:21;101568.22;;;-0.43;78.77
71805;BME280;59654;52.216;5.616;2023-04-06T01:40:54;101566.47;;;-0.43;78.97
71805;BME280;59654;52.216;5.616;2023-04-06T01:41:27;101560.41;;;-0.42;79.16
71805;BME280;59654;52.216;5.616;2023-04-06T01:41:58;101568.28;;;-0.40;79.25
71805;BME280;59654;52.216;5.616;2023-04-06T01:42:30;101562.16;;;-0.41;79.12
71805;BME280;59654;52.216;5.616;2023-04-06T01:43:01;101558.66;;;-0.41;79.74
71805;BME280;59654;52.216;5.616;2023-04-06T01:43:38;101555.19;;;-0.40;79.89
71805;BME280;59654;52.216;5.616;2023-04-06T01:44:16;101565.66;;;-0.40;79.58
71805;BME280;59654;52.216;5.616;2023-04-06T01:44:47;101558.66;;;-0.40;80.31
71805;BME280;59654;52.216;5.616;2023-04-06T01:45:19;101571.75;;;-0.40;79.85
71805;BME280;59654;52.216;5.616;2023-04-06T01:45:51;101555.19;;;-0.40;80.30
71805;BME280;59654;52.216;5.616;2023-04-06T01:46:24;101561.28;;;-0.40;79.92
71805;BME280;59654;52.216;5.616;2023-04-06T01:46:56;101547.31;;;-0.40;80.35
71805;BME280;59654;52.216;5.616;2023-04-06T01:47:27;101559.53;;;-0.39;80.46
71805;BME280;59654;52.216;5.616;2023-04-06T01:47:58;101553.41;;;-0.40;80.39
71805;BME280;59654;52.216;5.616;2023-04-06T01:48:31;101555.19;;;-0.39;80.78
71805;BME280;59654;52.216;5.616;2023-04-06T01:49:03;101556.94;;;-0.38;81.07
71805;BME280;59654;52.216;5.616;2023-04-06T01:49:40;101550.00;;;-0.36;81.00
71805;BME280;59654;52.216;5.616;2023-04-06T01:50:11;101557.00;;;-0.35;81.08
71805;BME280;59654;52.216;5.616;2023-04-06T01:50:47;101555.31;;;-0.33;81.14
71805;BME280;59654;52.216;5.616;2023-04-06T01:51:23;101553.56;;;-0.32;80.07
71805;BME280;59654;52.216;5.616;2023-04-06T01:52:02;101544.81;;;-0.33;80.42
71805;BME280;59654;52.216;5.616;2023-04-06T01:52:33;101551.84;;;-0.32;79.96
71805;BME280;59654;52.216;5.616;2023-04-06T01:53:04;101550.97;;;-0.31;80.33
71805;BME280;59654;52.216;5.616;2023-04-06T01:53:36;101547.50;;;-0.30;79.49
71805;BME280;59654;52.216;5.616;2023-04-06T01:54:10;101542.28;;;-0.28;79.96
71805;BME280;59654;52.216;5.616;2023-04-06T01:54:56;101548.44;;;-0.26;79.43
71805;BME280;59654;52.216;5.616;2023-04-06T01:55:43;101549.31;;;-0.26;78.96
71805;BME280;59654;52.216;5.616;2023-04-06T01:56:30;101549.31;;;-0.26;79.26
71805;BME280;59654;52.216;5.616;2023-04-06T01:57:10;101540.59;;;-0.26;78.98
71805;BME280;59654;52.216;5.616;2023-04-06T01:58:07;101543.22;;;-0.25;78.64
71805;BME280;59654;52.216;5.616;2023-04-06T01:58:42;101543.19;;;-0.26;78.99
71805;BME280;59654;52.216;5.616;2023-04-06T01:59:14;101544.94;;;-0.27;79.20
71805;BME280;59654;52.216;5.616;2023-04-06T01:59:47;101538.84;;;-0.26;78.98
71805;BME280;59654;52.216;5.616;2023-04-06T02:00:26;101542.31;;;-0.27;79.47
71805;BME280;59654;52.216;5.616;2023-04-06T02:00:58;101537.09;;;-0.27;79.21
71805;BME280;59654;52.216;5.616;2023-04-06T02:01:32;101543.19;;;-0.28;79.68
71805;BME280;59654;52.216;5.616;2023-04-06T02:02:03;101540.53;;;-0.29;79.58
71805;BME280;59654;52.216;5.616;2023-04-06T02:02:35;101540.50;;;-0.31;79.82
71805;BME280;59654;52.216;5.616;2023-04-06T02:03:10;101535.22;;;-0.32;79.31
71805;BME280;59654;52.216;5.616;2023-04-06T02:03:41;101537.81;;;-0.34;79.88
71805;BME280;59654;52.216;5.616;2023-04-06T02:04:14;101545.66;;;-0.35;79.61
71805;BME280;59654;52.216;5.616;2023-04-06T02:04:46;101542.16;;;-0.36;79.80
71805;BME280;59654;52.216;5.616;2023-04-06T02:05:19;101550.88;;;-0.35;79.68
71805;BME280;59654;52.216;5.616;2023-04-06T02:05:50;101540.38;;;-0.37;79.67
71805;BME280;59654;52.216;5.616;2023-04-06T02:06:29;101538.63;;;-0.36;79.95
71805;BME280;59654;52.216;5.616;2023-04-06T02:07:01;101537.78;;;-0.35;79.89
71805;BME280;59654;52.216;5.616;2023-04-06T02:07:33;101538.66;;;-0.35;79.93
71805;BME280;59654;52.216;5.616;2023-04-06T02:08:05;101540.41;;;-0.35;79.79
71805;BME280;59654;52.216;5.616;2023-04-06T02:08:38;101538.66;;;-0.35;79.35
71805;BME280;59654;52.216;5.616;2023-04-06T02:09:10;101538.66;;;-0.35;79.46
71805;BME280;59654;52.216;5.616;2023-04-06T02:09:40;101536.94;;;-0.34;79.65
71805;BME280;59654;52.216;5.616;2023-04-06T02:10:16;101538.69;;;-0.33;79.44
71805;BME280;59654;52.216;5.616;2023-04-06T02:10:48;101542.22;;;-0.31;79.44
71805;BME280;59654;52.216;5.616;2023-04-06T02:11:29;101536.13;;;-0.32;79.25
71805;BME280;59654;52.216;5.616;2023-04-06T02:12:00;101535.25;;;-0.31;79.22
71805;BME280;59654;52.216;5.616;2023-04-06T02:12:33;101533.53;;;-0.30;79.15
71805;BME280;59654;52.216;5.616;2023-04-06T02:13:04;101526.53;;;-0.30;78.99
71805;BME280;59654;52.216;5.616;2023-04-06T02:13:35;101531.81;;;-0.28;79.01
71805;BME280;59654;52.216;5.616;2023-04-06T02:14:06;101533.53;;;-0.29;78.75
71805;BME280;59654;52.216;5.616;2023-04-06T02:14:42;101532.69;;;-0.28;78.33
71805;BME280;59654;52.216;5.616;2023-04-06T02:15:13;101530.09;;;-0.26;78.05
71805;BME280;59654;52.216;5.616;2023-04-06T02:15:44;101536.19;;;-0.27;77.79
71805;BME280;59654;52.216;5.616;2023-04-06T02:16:15;101530.09;;;-0.26;77.89
71805;BME280;59654;52.216;5.616;2023-04-06T02:16:47;101527.47;;;-0.26;77.54
71805;BME280;59654;52.216;5.616;2023-04-06T02:17:18;101527.50;;;-0.25;77.97
71805;BME280;59654;52.216;5.616;2023-04-06T02:17:49;101527.47;;;-0.26;77.81
71805;BME280;59654;52.216;5.616;2023-04-06T02:18:20;101520.50;;;-0.26;78.22
71805;BME280;59654;52.216;5.616;2023-04-06T02:18:51;101521.38;;;-0.25;78.17
71805;BME280;59654;52.216;5.616;2023-04-06T02:19:22;101523.16;;;-0.24;78.57
71805;BME280;59654;52.216;5.616;2023-04-06T02:19:53;101530.13;;;-0.25;78.45
71805;BME280;59654;52.216;5.616;2023-04-06T02:20:23;101516.16;;;-0.24;78.13
71805;BME280;59654;52.216;5.616;2023-04-06T02:20:54;101527.50;;;-0.25;78.15
71805;BME280;59654;52.216;5.616;2023-04-06T02:21:25;101521.38;;;-0.24;78.45
71805;BME280;59654;52.216;5.616;2023-04-06T02:21:56;101525.78;;;-0.23;78.69
71805;BME280;59654;52.216;5.616;2023-04-06T02:22:27;101521.41;;;-0.22;78.33
71805;BME280;59654;52.216;5.616;2023-04-06T02:22:59;101524.91;;;-0.22;78.61
71805;BME280;59654;52.216;5.616;2023-04-06T02:23:30;101521.41;;;-0.22;78.72
71805;BME280;59654;52.216;5.616;2023-04-06T02:24:01;101518.81;;;-0.21;78.47
71805;BME280;59654;52.216;5.616;2023-04-06T02:24:33;101514.47;;;-0.20;78.95
71805;BME280;59654;52.216;5.616;2023-04-06T02:25:04;101520.59;;;-0.20;79.26
71805;BME280;59654;52.216;5.616;2023-04-06T02:25:35;101517.97;;;-0.20;79.05
71805;BME280;59654;52.216;5.616;2023-04-06T02:26:06;101525.00;;;-0.17;79.27
71805;BME280;59654;52.216;5.616;2023-04-06T02:26:36;101519.78;;;-0.15;79.50
71805;BME280;59654;52.216;5.616;2023-04-06T02:27:07;101515.44;;;-0.15;79.68
71805;BME280;59654;52.216;5.616;2023-04-06T02:27:38;101525.94;;;-0.13;79.58
71805;BME280;59654;52.216;5.616;2023-04-06T02:28:09;101510.22;;;-0.13;79.77
71805;BME280;59654;52.216;5.616;2023-04-06T02:28:41;101522.47;;;-0.12;79.90
71805;BME280;59654;52.216;5.616;2023-04-06T02:29:12;101512.84;;;-0.13;80.04
71805;BME280;59654;52.216;5.616;2023-04-06T02:29:42;101522.47;;;-0.12;80.24
71805;BME280;59654;52.216;5.616;2023-04-06T02:30:13;101518.09;;;-0.12;79.86
71805;BME280;59654;52.216;5.616;2023-04-06T02:30:44;101516.38;;;-0.11;79.52
71805;BME280;59654;52.216;5.616;2023-04-06T02:31:16;101514.63;;;-0.11;79.47
71805;BME280;59654;52.216;5.616;2023-04-06T02:31:48;101520.75;;;-0.10;79.61
71805;BME280;59654;52.216;5.616;2023-04-06T02:32:19;101521.63;;;-0.10;79.51
71805;BME280;59654;52.216;5.616;2023-04-06T02:32:50;101519.91;;;-0.09;79.21
71805;BME280;59654;52.216;5.616;2023-04-06T02:33:21;101516.41;;;-0.10;79.45
71805;BME280;59654;52.216;5.616;2023-04-06T02:33:52;101510.28;;;-0.10;79.63
71805;BME280;59654;52.216;5.616;2023-04-06T02:34:23;101514.66;;;-0.09;79.45
71805;BME280;59654;52.216;5.616;2023-04-06T02:34:56;101513.78;;;-0.10;79.36
71805;BME280;59654;52.216;5.616;2023-04-06T02:35:30;101511.16;;;-0.10;79.30
71805;BME280;59654;52.216;5.616;2023-04-06T02:36:02;101513.78;;;-0.07;80.08
71805;BME280;59654;52.216;5.616;2023-04-06T02:36:33;101519.91;;;-0.06;79.72
71805;BME280;59654;52.216;5.616;2023-04-06T02:37:04;101517.31;;;-0.06;79.65
71805;BME280;59654;52.216;5.616;2023-04-06T02:37:35;101515.56;;;-0.06;79.59
71805;BME280;59654;52.216;5.616;2023-04-06T02:38:05;101511.22;;;-0.05;79.56
71805;BME280;59654;52.216;5.616;2023-04-06T02:38:36;101514.69;;;-0.06;79.40
71805;BME280;59654;52.216;5.616;2023-04-06T02:39:07;101514.69;;;-0.06;79.01
71805;BME280;59654;52.216;5.616;2023-04-06T02:39:38;101512.03;;;-0.09;77.65
71805;BME280;59654;52.216;5.616;2023-04-06T02:40:13;101508.50;;;-0.11;78.25
71805;BME280;59654;52.216;5.616;2023-04-06T02:40:44;101511.09;;;-0.13;77.57
71805;BME280;59654;52.216;5.616;2023-04-06T02:41:27;101514.59;;;-0.12;77.86
71805;BME280;59654;52.216;5.616;2023-04-06T02:41:58;101507.63;;;-0.12;77.85
71805;BME280;59654;52.216;5.616;2023-04-06T02:42:30;101511.16;;;-0.10;77.86
71805;BME280;59654;52.216;5.616;2023-04-06T02:43:01;101512.91;;;-0.09;77.91
71805;BME280;59654;52.216;5.616;2023-04-06T02:43:35;101515.53;;;-0.09;77.37
71805;BME280;59654;52.216;5.616;2023-04-06T02:44:11;101508.59;;;-0.05;76.96
71805;BME280;59654;52.216;5.616;2023-04-06T02:44:45;101509.47;;;-0.05;77.50
71805;BME280;59654;52.216;5.616;2023-04-06T02:45:16;101507.75;;;-0.03;76.89
71805;BME280;59654;52.216;5.616;2023-04-06T02:45:50;101507.78;;;-0.01;76.71
71805;BME280;59654;52.216;5.616;2023-04-06T02:46:22;101512.16;;;-0.00;76.50
71805;BME280;59654;52.216;5.616;2023-04-06T02:46:53;101513.09;;;0.02;76.54
71805;BME280;59654;52.216;5.616;2023-04-06T02:47:26;101513.09;;;0.02;76.61
71805;BME280;59654;52.216;5.616;2023-04-06T02:47:57;101500.84;;;0.02;76.97
71805;BME280;59654;52.216;5.616;2023-04-06T02:48:29;101498.25;;;0.04;77.15
71805;BME280;59654;52.216;5.616;2023-04-06T02:49:00;101507.06;;;0.07;77.59
71805;BME280;59654;52.216;5.616;2023-04-06T02:49:32;101507.94;;;0.08;77.34
71805;BME280;59654;52.216;5.616;2023-04-06T02:50:04;101505.34;;;0.11;77.04
71805;BME280;59654;52.216;5.616;2023-04-06T02:50:37;101495.75;;;0.11;76.82
71805;BME280;59654;52.216;5.616;2023-04-06T02:51:10;101503.63;;;0.13;76.81
71805;BME280;59654;52.216;5.616;2023-04-06T02:51:41;101501.03;;;0.14;77.17
71805;BME280;59654;52.216;5.616;2023-04-06T02:52:26;101504.56;;;0.16;77.07
71805;BME280;59654;52.216;5.616;2023-04-06T02:52:57;101499.31;;;0.16;77.56
71805;BME280;59654;52.216;5.616;2023-04-06T02:53:31;101504.63;;;0.20;77.73
71805;BME280;59654;52.216;5.616;2023-04-06T02:54:02;101495.03;;;0.22;77.51
71805;BME280;59654;52.216;5.616;2023-04-06T02:54:33;101492.41;;;0.22;77.56